createdAt,value
2022-08-01T00:01:31.883Z,100150.44
2022-08-01T00:03:59.915Z,100147.63
2022-08-01T00:06:28.164Z,100146.81
2022-08-01T00:08:56.467Z,100150.75
2022-08-01T00:11:24.562Z,100150.25
2022-08-01T00:13:52.542Z,100152.91
2022-08-01T00:16:23.683Z,100142.03
2022-08-01T00:18:53.621Z,100133.94
2022-08-01T00:21:21.648Z,100138.56
2022-08-01T00:23:49.920Z,100144.81
2022-08-01T00:26:17.944Z,100141.53
2022-08-01T00:28:45.964Z,100143.69
2022-08-01T00:31:14.197Z,100130.66
2022-08-01T00:33:42.183Z,100131.47
2022-08-01T00:36:11.691Z,100126.53
2022-08-01T00:38:39.741Z,100133.13
2022-08-01T00:41:07.749Z,100127.81
2022-08-01T00:43:35.817Z,100128.00
2022-08-01T00:46:03.849Z,100129.31
2022-08-01T00:48:31.864Z,100135.09
2022-08-01T00:51:00.013Z,100121.25
2022-08-01T00:53:38.759Z,100120.41
2022-08-01T00:56:17.577Z,100122.25
2022-08-01T00:58:45.885Z,100119.09
2022-08-01T01:01:14.111Z,100130.97
2022-08-01T01:03:58.656Z,100126.50
2022-08-01T01:06:40.229Z,100125.38
2022-08-01T01:09:26.058Z,100121.72
2022-08-01T01:12:04.786Z,100125.38
2022-08-01T01:14:39.009Z,100121.41
2022-08-01T01:17:10.060Z,100130.31
2022-08-01T01:19:43.726Z,100124.72
2022-08-01T01:22:32.517Z,100122.72
2022-08-01T01:25:12.189Z,100121.44
2022-08-01T01:27:50.618Z,100124.69
2022-08-01T01:30:20.929Z,100127.00
2022-08-01T01:32:52.217Z,100124.22
2022-08-01T01:35:26.331Z,100123.03
2022-08-01T01:38:07.590Z,100121.06
2022-08-01T01:40:36.480Z,100109.88
2022-08-01T01:43:04.650Z,100109.22
2022-08-01T01:45:34.520Z,100109.19
2022-08-01T01:48:04.211Z,100094.72
2022-08-01T01:50:33.046Z,100097.69
2022-08-01T01:53:02.800Z,100096.38
2022-08-01T01:55:32.271Z,100092.41
2022-08-01T01:58:02.341Z,100086.63
2022-08-01T02:00:34.025Z,100092.09
2022-08-01T02:03:04.766Z,100083.19
2022-08-01T02:05:35.467Z,100091.56
2022-08-01T02:08:04.671Z,100083.31
2022-08-01T02:10:34.281Z,100081.66
2022-08-01T02:13:05.937Z,100083.50
2022-08-01T02:15:39.341Z,100080.88
2022-08-01T02:18:27.622Z,100090.44
2022-08-01T02:20:58.031Z,100091.59
2022-08-01T02:23:30.446Z,100089.44
2022-08-01T02:26:09.183Z,100095.38
2022-08-01T02:28:45.806Z,100091.44
2022-08-01T02:31:20.234Z,100093.88
2022-08-01T02:33:54.374Z,100100.31
2022-08-01T02:36:30.585Z,100091.09
2022-08-01T02:39:04.482Z,100089.25
2022-08-01T02:41:35.682Z,100086.81
2022-08-01T02:44:07.318Z,100094.06
2022-08-01T02:46:40.607Z,100093.06
2022-08-01T02:49:11.609Z,100080.22
2022-08-01T02:51:42.069Z,100093.06
2022-08-01T02:54:12.687Z,100081.88
2022-08-01T02:56:42.203Z,100083.34
2022-08-01T02:59:16.132Z,100079.22
2022-08-01T03:01:50.362Z,100097.38
2022-08-01T03:04:20.149Z,100089.47
2022-08-01T03:06:49.357Z,100088.78
2022-08-01T03:09:18.943Z,100092.06
2022-08-01T03:11:49.060Z,100092.25
2022-08-01T03:14:18.307Z,100085.50
2022-08-01T03:16:49.338Z,100092.06
2022-08-01T03:19:20.400Z,100089.28
2022-08-01T03:21:50.530Z,100093.72
2022-08-01T03:24:19.774Z,100096.19
2022-08-01T03:26:48.489Z,100095.38
2022-08-01T03:29:19.558Z,100087.63
2022-08-01T03:31:51.365Z,100087.47
2022-08-01T03:34:22.341Z,100096.69
2022-08-01T03:36:55.428Z,100091.56
2022-08-01T03:39:27.241Z,100091.72
2022-08-01T03:42:00.369Z,100093.06
2022-08-01T03:44:31.263Z,100093.72
2022-08-01T03:47:04.750Z,100081.69
2022-08-01T03:49:35.316Z,100090.75
2022-08-01T03:52:06.403Z,100088.59
2022-08-01T03:54:38.732Z,100085.97
2022-08-01T03:57:07.867Z,100080.63
2022-08-01T03:59:49.166Z,100081.81
2022-08-01T04:02:22.723Z,100075.53
2022-08-01T04:04:50.781Z,100083.13
2022-08-01T04:07:26.598Z,100072.31
2022-08-01T04:09:55.026Z,100076.59
2022-08-01T04:12:23.630Z,100079.72
2022-08-01T04:14:51.689Z,100071.31
2022-08-01T04:17:21.143Z,100074.88
2022-08-01T04:19:49.177Z,100041.59
2022-08-01T04:22:17.819Z,100074.97
2022-08-01T04:24:54.694Z,100074.50
2022-08-01T04:27:51.152Z,100076.06
2022-08-01T04:30:21.094Z,100068.50
2022-08-01T04:32:52.005Z,100069.72
2022-08-01T04:35:22.973Z,100067.00
2022-08-01T04:38:13.890Z,100074.84
2022-08-01T04:40:42.739Z,100071.53
2022-08-01T04:43:11.361Z,100071.41
2022-08-01T04:45:40.363Z,100069.28
2022-08-01T04:48:12.061Z,100072.41
2022-08-01T04:50:42.967Z,100077.28
2022-08-01T04:53:15.517Z,100066.47
2022-08-01T04:55:43.499Z,100064.00
2022-08-01T04:58:16.154Z,100063.00
2022-08-01T05:00:45.869Z,100071.59
2022-08-01T05:03:15.295Z,100072.81
2022-08-01T05:05:43.406Z,100067.03
2022-08-01T05:08:11.382Z,100063.97
2022-08-01T05:10:39.451Z,100064.00
2022-08-01T05:13:07.626Z,100058.41
2022-08-01T05:15:37.745Z,100054.09
2022-08-01T05:18:07.759Z,100062.19
2022-08-01T05:20:39.034Z,100060.22
2022-08-01T05:23:10.483Z,100054.16
2022-08-01T05:25:57.305Z,100047.25
2022-08-01T05:28:26.194Z,100051.84
2022-08-01T05:30:55.957Z,100049.00
2022-08-01T05:33:24.415Z,100053.34
2022-08-01T05:35:53.818Z,100060.94
2022-08-01T05:38:21.854Z,100056.25
2022-08-01T05:40:49.888Z,100047.88
2022-08-01T05:43:18.840Z,100049.31
2022-08-01T05:45:47.145Z,100042.38
2022-08-01T05:48:15.185Z,100047.03
2022-08-01T05:50:43.231Z,100049.88
2022-08-01T05:53:12.746Z,100048.88
2022-08-01T05:55:40.768Z,100051.75
2022-08-01T05:58:08.743Z,100047.63
2022-08-01T06:00:40.643Z,100064.41
2022-08-01T06:03:08.640Z,100055.81
2022-08-01T06:05:36.692Z,100056.75
2022-08-01T06:08:05.034Z,100062.63
2022-08-01T06:10:34.547Z,100048.84
2022-08-01T06:13:04.127Z,100056.06
2022-08-01T06:15:32.345Z,100048.72
2022-08-01T06:18:00.785Z,100058.47
2022-08-01T06:20:28.927Z,100060.06
2022-08-01T06:22:56.970Z,100063.22
2022-08-01T06:25:28.108Z,100060.69
2022-08-01T06:27:57.498Z,100058.31
2022-08-01T06:30:25.608Z,100054.50
2022-08-01T06:32:53.999Z,100052.44
2022-08-01T06:35:22.169Z,100059.06
2022-08-01T06:37:50.261Z,100060.56
2022-08-01T06:40:18.984Z,100053.59
2022-08-01T06:42:47.963Z,100053.44
2022-08-01T06:45:17.807Z,100056.19
2022-08-01T06:47:50.846Z,100058.91
2022-08-01T06:50:19.059Z,100060.06
2022-08-01T06:52:47.303Z,100055.03
2022-08-01T06:55:15.878Z,100060.84
2022-08-01T06:57:51.120Z,100051.88
2022-08-01T07:00:23.588Z,100055.97
2022-08-01T07:02:52.229Z,100064.81
2022-08-01T07:05:20.554Z,100057.00
2022-08-01T07:07:48.561Z,100064.63
2022-08-01T07:10:16.604Z,100055.84
2022-08-01T07:12:44.633Z,100061.03
2022-08-01T07:15:13.707Z,100066.72
2022-08-01T07:17:44.274Z,100059.50
2022-08-01T07:20:16.522Z,100056.34
2022-08-01T07:22:47.536Z,100066.19
2022-08-01T07:25:16.522Z,100071.53
2022-08-01T07:27:44.583Z,100071.38
2022-08-01T07:30:13.269Z,100067.56
2022-08-01T07:32:42.733Z,100072.63
2022-08-01T07:35:11.581Z,100077.75
2022-08-01T07:37:47.977Z,100073.59
2022-08-01T07:40:17.907Z,100072.91
2022-08-01T07:42:46.152Z,100066.03
2022-08-01T07:45:15.286Z,100064.59
2022-08-01T07:47:45.046Z,100066.38
2022-08-01T07:50:13.773Z,100065.34
2022-08-01T07:52:42.044Z,100054.19
2022-08-01T07:55:11.152Z,100067.47
2022-08-01T07:57:39.379Z,100069.63
2022-08-01T08:00:09.912Z,100066.75
2022-08-01T08:02:37.919Z,100067.00
2022-08-01T08:05:08.523Z,100062.84
2022-08-01T08:07:36.829Z,100040.91
2022-08-01T08:10:05.714Z,100066.59
2022-08-01T08:12:34.372Z,100065.38
2022-08-01T08:15:02.408Z,100029.25
2022-08-01T08:17:35.561Z,100059.78
2022-08-01T08:20:08.891Z,100053.13
2022-08-01T08:22:38.664Z,100060.41
2022-08-01T08:25:08.378Z,100055.91
2022-08-01T08:27:37.324Z,100062.97
2022-08-01T08:30:08.649Z,100068.88
2022-08-01T08:32:37.009Z,100066.91
2022-08-01T08:35:06.091Z,100073.78
2022-08-01T08:37:39.151Z,100066.16
2022-08-01T08:40:17.957Z,100073.59
2022-08-01T08:42:48.333Z,100073.47
2022-08-01T08:45:16.423Z,100080.84
2022-08-01T08:47:48.087Z,100075.41
2022-08-01T08:50:16.540Z,100070.44
2022-08-01T08:52:46.746Z,100087.81
2022-08-01T08:55:18.002Z,100091.06
2022-08-01T08:57:47.971Z,100075.19
2022-08-01T09:00:17.295Z,100079.88
2022-08-01T09:02:46.584Z,100091.72
2022-08-01T09:05:19.261Z,100086.75
2022-08-01T09:07:47.863Z,100088.72
2022-08-01T09:10:17.406Z,100092.88
2022-08-01T09:13:11.828Z,100090.56
2022-08-01T09:15:41.546Z,100086.44
2022-08-01T09:18:09.795Z,100083.06
2022-08-01T09:20:37.821Z,100077.47
2022-08-01T09:23:05.880Z,100079.28
2022-08-01T09:25:52.632Z,100071.53
2022-08-01T09:28:29.632Z,100083.66
2022-08-01T09:30:58.770Z,100072.84
2022-08-01T09:33:27.087Z,100078.81
2022-08-01T09:35:58.581Z,100064.94
2022-08-01T09:38:28.597Z,100073.50
2022-08-01T09:41:01.400Z,100070.19
2022-08-01T09:43:32.407Z,100074.75
2022-08-01T09:46:01.607Z,100071.44
2022-08-01T09:48:30.136Z,100059.78
2022-08-01T09:51:04.131Z,100072.44
2022-08-01T09:53:52.655Z,100075.06
2022-08-01T09:56:24.499Z,100082.53
2022-08-01T09:58:59.406Z,100075.41
2022-08-01T10:01:36.932Z,100072.06
2022-08-01T10:04:09.884Z,100085.28
2022-08-01T10:06:39.139Z,100091.03
2022-08-01T10:09:07.382Z,100091.38
2022-08-01T10:11:40.378Z,100095.69
2022-08-01T10:14:08.766Z,100089.50
2022-08-01T10:16:38.400Z,100088.97
2022-08-01T10:19:11.225Z,100094.69
2022-08-01T10:21:57.097Z,100096.91
2022-08-01T10:24:29.862Z,100091.03
2022-08-01T10:27:12.624Z,100093.47
2022-08-01T10:30:05.469Z,100096.41
2022-08-01T10:32:34.364Z,100095.91
2022-08-01T10:35:06.771Z,100093.34
2022-08-01T10:37:36.427Z,100088.44
2022-08-01T10:40:36.960Z,100081.31
2022-08-01T10:43:07.096Z,100085.59
2022-08-01T10:45:36.033Z,100081.88
2022-08-01T10:48:11.692Z,100069.56
2022-08-01T10:50:44.760Z,100081.44
2022-08-01T10:53:23.989Z,100079.91
2022-08-01T10:56:04.071Z,100082.75
2022-08-01T10:58:42.811Z,100079.47
2022-08-01T11:01:23.824Z,100087.06
2022-08-01T11:04:15.499Z,100073.59
2022-08-01T11:06:51.929Z,100082.56
2022-08-01T11:09:37.235Z,100083.06
2022-08-01T11:12:13.295Z,100071.72
2022-08-01T11:15:31.933Z,100091.88
2022-08-01T11:18:02.170Z,100079.47
2022-08-01T11:20:32.597Z,100086.09
2022-08-01T11:23:36.182Z,100078.91
2022-08-01T11:26:29.326Z,100072.13
2022-08-01T11:29:22.423Z,100069.63
2022-08-01T11:31:53.448Z,100076.47
2022-08-01T11:34:21.811Z,100073.97
2022-08-01T11:36:59.800Z,100079.28
2022-08-01T11:39:28.173Z,100061.88
2022-08-01T11:42:17.870Z,100066.63
2022-08-01T11:44:51.360Z,100066.75
2022-08-01T11:47:41.152Z,100061.91
2022-08-01T11:50:33.420Z,100069.13
2022-08-01T11:53:02.387Z,100074.09
2022-08-01T11:55:31.471Z,100066.28
2022-08-01T11:58:02.398Z,100065.00
2022-08-01T12:00:32.630Z,100062.78
2022-08-01T12:03:04.687Z,100058.22
2022-08-01T12:05:34.538Z,100058.69
2022-08-01T12:08:03.443Z,100059.53
2022-08-01T12:10:49.671Z,100048.28
2022-08-01T12:13:19.121Z,100064.66
2022-08-01T12:15:47.638Z,100053.59
2022-08-01T12:18:17.238Z,100050.63
2022-08-01T12:20:57.090Z,100043.91
2022-08-01T12:23:25.629Z,100041.63
2022-08-01T12:25:54.875Z,100041.31
2022-08-01T12:28:23.910Z,100038.22
2022-08-01T12:30:52.590Z,100038.63
2022-08-01T12:33:22.942Z,100044.41
2022-08-01T12:35:51.267Z,100040.84
2022-08-01T12:38:23.223Z,100056.94
2022-08-01T12:40:53.292Z,100048.00
2022-08-01T12:43:28.455Z,100046.97
2022-08-01T12:45:58.587Z,100044.19
2022-08-01T12:48:29.112Z,100043.56
2022-08-01T12:50:59.263Z,100042.84
2022-08-01T12:53:40.784Z,100043.03
2022-08-01T12:56:11.353Z,100045.31
2022-08-01T12:58:39.816Z,100040.66
2022-08-01T13:01:10.116Z,100039.69
2022-08-01T13:03:40.025Z,100028.38
2022-08-01T13:06:15.972Z,100037.63
2022-08-01T13:08:45.436Z,100035.16
2022-08-01T13:11:16.894Z,100037.44
2022-08-01T13:13:48.382Z,100036.06
2022-08-01T13:16:30.294Z,100033.22
2022-08-01T13:19:08.082Z,100022.19
2022-08-01T13:21:54.373Z,100038.28
2022-08-01T13:24:28.071Z,100028.66
2022-08-01T13:27:01.413Z,100030.94
2022-08-01T13:29:33.985Z,100026.56
2022-08-01T13:32:02.942Z,100029.97
2022-08-01T13:34:36.510Z,100033.38
2022-08-01T13:37:04.669Z,100023.84
2022-08-01T13:39:43.264Z,100027.34
2022-08-01T13:42:11.558Z,100036.53
2022-08-01T13:44:47.830Z,100023.03
2022-08-01T13:47:16.341Z,100035.41
2022-08-01T13:49:46.693Z,100033.31
2022-08-01T13:52:14.891Z,100022.06
2022-08-01T13:54:43.045Z,100011.72
2022-08-01T13:57:12.061Z,100002.31
2022-08-01T13:59:40.224Z,100025.47
2022-08-01T14:02:08.733Z,100020.13
2022-08-01T14:04:37.102Z,100011.47
2022-08-01T14:07:10.718Z,100025.47
2022-08-01T14:09:57.794Z,100024.50
2022-08-01T14:12:31.153Z,100034.22
2022-08-01T14:14:59.287Z,100032.63
2022-08-01T14:17:28.497Z,100033.94
2022-08-01T14:19:57.701Z,100036.34
2022-08-01T14:22:27.268Z,100041.50
2022-08-01T14:25:00.825Z,100042.47
2022-08-01T14:27:31.950Z,100032.22
2022-08-01T14:30:03.882Z,100045.59
2022-08-01T14:32:34.332Z,100052.09
2022-08-01T14:35:02.627Z,100035.19
2022-08-01T14:37:37.604Z,100046.25
2022-08-01T14:40:10.716Z,100042.53
2022-08-01T14:42:40.009Z,100040.31
2022-08-01T14:45:10.582Z,100034.16
2022-08-01T14:47:39.360Z,100037.78
2022-08-01T14:50:09.292Z,100041.47
2022-08-01T14:52:39.974Z,100035.75
2022-08-01T14:55:09.902Z,100038.59
2022-08-01T14:57:39.267Z,100033.69
2022-08-01T15:00:11.245Z,100029.34
2022-08-01T15:02:39.556Z,100036.69
2022-08-01T15:05:09.113Z,100034.22
2022-08-01T15:07:43.782Z,100034.69
2022-08-01T15:10:20.562Z,100041.47
2022-08-01T15:12:50.630Z,100032.03
2022-08-01T15:15:18.934Z,100033.66
2022-08-01T15:17:47.281Z,100034.94
2022-08-01T15:20:15.249Z,100032.50
2022-08-01T15:22:44.657Z,100015.03
2022-08-01T15:25:12.689Z,100021.91
2022-08-01T15:27:40.666Z,100025.41
2022-08-01T15:30:09.911Z,100031.47
2022-08-01T15:32:37.939Z,100025.03
2022-08-01T15:35:07.255Z,100023.97
2022-08-01T15:37:38.464Z,100019.47
2022-08-01T15:40:12.496Z,100021.41
2022-08-01T15:42:40.562Z,100025.16
2022-08-01T15:45:20.705Z,100019.84
2022-08-01T15:47:58.350Z,100024.03
2022-08-01T15:50:26.400Z,100025.38
2022-08-01T15:52:54.425Z,100028.91
2022-08-01T15:55:23.846Z,100018.41
2022-08-01T15:57:51.875Z,100028.41
2022-08-01T16:00:19.971Z,100034.34
2022-08-01T16:02:48.434Z,100037.53
2022-08-01T16:05:19.697Z,100025.44
2022-08-01T16:07:59.825Z,100031.81
2022-08-01T16:10:31.986Z,100027.09
2022-08-01T16:13:00.291Z,100027.22
2022-08-01T16:15:36.640Z,100040.66
2022-08-01T16:18:06.482Z,100033.00
2022-08-01T16:20:34.628Z,100041.47
2022-08-01T16:23:03.061Z,100035.53
2022-08-01T16:25:32.492Z,100043.78
2022-08-01T16:28:00.531Z,100038.91
2022-08-01T16:30:28.693Z,100041.69
2022-08-01T16:33:00.161Z,100057.06
2022-08-01T16:35:36.269Z,100058.84
2022-08-01T16:38:05.783Z,100055.38
2022-08-01T16:40:47.711Z,100057.28
2022-08-01T16:43:16.881Z,100056.06
2022-08-01T16:45:45.633Z,100064.34
2022-08-01T16:48:15.461Z,100063.47
2022-08-01T16:50:43.686Z,100057.69
2022-08-01T16:53:13.233Z,100054.00
2022-08-01T16:55:50.552Z,100060.44
2022-08-01T16:58:22.273Z,100066.03
2022-08-01T17:00:57.619Z,100067.84
2022-08-01T17:03:46.680Z,100070.25
2022-08-01T17:06:16.789Z,100058.44
2022-08-01T17:08:47.191Z,100071.72
2022-08-01T17:11:17.139Z,100064.38
2022-08-01T17:13:45.584Z,100072.66
2022-08-01T17:16:13.680Z,100072.19
2022-08-01T17:18:41.758Z,100069.75
2022-08-01T17:21:09.962Z,100076.34
2022-08-01T17:23:38.962Z,100084.72
2022-08-01T17:26:07.002Z,100086.22
2022-08-01T17:28:36.534Z,100075.41
2022-08-01T17:31:07.481Z,100081.38
2022-08-01T17:33:46.143Z,100086.13
2022-08-01T17:36:17.878Z,100084.09
2022-08-01T17:38:45.993Z,100094.16
2022-08-01T17:41:14.397Z,100091.53
2022-08-01T17:43:44.745Z,100093.81
2022-08-01T17:46:12.759Z,100091.56
2022-08-01T17:48:40.819Z,100090.38
2022-08-01T17:51:08.858Z,100098.56
2022-08-01T17:53:36.983Z,100100.47
2022-08-01T17:56:23.939Z,100108.69
2022-08-01T17:58:53.418Z,100110.13
2022-08-01T18:01:21.640Z,100118.75
2022-08-01T18:03:54.955Z,100115.50
2022-08-01T18:06:23.812Z,100122.69
2022-08-01T18:08:55.398Z,100118.22
2022-08-01T18:11:27.557Z,100126.44
2022-08-01T18:13:59.591Z,100128.47
2022-08-01T18:16:28.033Z,100128.06
2022-08-01T18:18:56.198Z,100132.19
2022-08-01T18:21:24.238Z,100134.25
2022-08-01T18:23:52.529Z,100141.84
2022-08-01T18:26:21.780Z,100134.69
2022-08-01T18:28:49.951Z,100150.06
2022-08-01T18:31:20.800Z,100146.59
2022-08-01T18:33:49.289Z,100150.72
2022-08-01T18:36:32.205Z,100156.03
2022-08-01T18:39:04.577Z,100149.28
2022-08-01T18:41:33.937Z,100147.66
2022-08-01T18:44:03.850Z,100166.91
2022-08-01T18:46:37.818Z,100155.84
2022-08-01T18:49:06.937Z,100167.53
2022-08-01T18:51:38.854Z,100170.19
2022-08-01T18:54:11.298Z,100165.88
2022-08-01T18:56:39.328Z,100174.69
2022-08-01T18:59:07.369Z,100171.84
2022-08-01T19:01:36.858Z,100172.03
2022-08-01T19:04:05.526Z,100174.91
2022-08-01T19:06:33.550Z,100180.63
2022-08-01T19:09:03.570Z,100179.78
2022-08-01T19:11:32.027Z,100173.66
2022-08-01T19:14:01.226Z,100177.72
2022-08-01T19:16:29.282Z,100184.69
2022-08-01T19:18:58.839Z,100182.00
2022-08-01T19:21:27.219Z,100186.13
2022-08-01T19:24:12.699Z,100180.19
2022-08-01T19:26:46.842Z,100180.19
2022-08-01T19:29:18.369Z,100190.00
2022-08-01T19:31:49.070Z,100182.22
2022-08-01T19:34:20.482Z,100198.63
2022-08-01T19:36:57.793Z,100191.63
2022-08-01T19:39:28.314Z,100198.97
2022-08-01T19:41:59.475Z,100193.66
2022-08-01T19:44:29.713Z,100198.19
2022-08-01T19:46:57.874Z,100206.97
2022-08-01T19:49:27.386Z,100203.72
2022-08-01T19:52:01.357Z,100197.53
2022-08-01T19:54:35.720Z,100205.53
2022-08-01T19:57:06.224Z,100209.44
2022-08-01T19:59:36.530Z,100203.69
2022-08-01T20:02:05.564Z,100209.38
2022-08-01T20:04:36.641Z,100198.06
2022-08-01T20:07:05.664Z,100206.06
2022-08-01T20:09:34.602Z,100212.16
2022-08-01T20:12:02.791Z,100215.44
2022-08-01T20:14:31.080Z,100211.31
2022-08-01T20:17:00.250Z,100210.69
2022-08-01T20:19:29.538Z,100221.31
2022-08-01T20:22:03.838Z,100217.22
2022-08-01T20:24:39.494Z,100219.66
2022-08-01T20:27:10.167Z,100215.56
2022-08-01T20:29:39.199Z,100210.81
2022-08-01T20:32:08.863Z,100217.19
2022-08-01T20:34:39.020Z,100213.84
2022-08-01T20:37:13.327Z,100220.34
2022-08-01T20:39:45.005Z,100221.97
2022-08-01T20:42:14.255Z,100214.38
2022-08-01T20:44:43.096Z,100213.34
2022-08-01T20:47:11.465Z,100212.53
2022-08-01T20:49:40.199Z,100203.91
2022-08-01T20:52:11.331Z,100218.22
2022-08-01T20:54:40.482Z,100210.19
2022-08-01T20:57:13.321Z,100218.97
2022-08-01T20:59:56.854Z,100223.47
2022-08-01T21:02:41.432Z,100224.56
2022-08-01T21:05:11.495Z,100222.94
2022-08-01T21:07:48.927Z,100221.31
2022-08-01T21:10:19.487Z,100227.00
2022-08-01T21:12:51.246Z,100229.81
2022-08-01T21:15:28.351Z,100234.69
2022-08-01T21:18:02.582Z,100231.97
2022-08-01T21:20:33.754Z,100231.72
2022-08-01T21:23:10.791Z,100236.41
2022-08-01T21:25:39.227Z,100230.22
2022-08-01T21:28:07.282Z,100229.94
2022-08-01T21:30:37.451Z,100232.19
2022-08-01T21:33:06.223Z,100228.16
2022-08-01T21:35:35.525Z,100235.88
2022-08-01T21:38:05.680Z,100236.00
2022-08-01T21:40:35.152Z,100231.06
2022-08-01T21:43:04.170Z,100239.59
2022-08-01T21:45:32.421Z,100239.94
2022-08-01T21:48:01.173Z,100262.44
2022-08-01T21:50:40.479Z,100255.47
2022-08-01T21:53:17.147Z,100254.28
2022-08-01T21:56:13.540Z,100251.00
2022-08-01T21:58:52.160Z,100255.03
2022-08-01T22:01:28.335Z,100255.47
2022-08-01T22:04:00.043Z,100258.94
2022-08-01T22:06:34.193Z,100257.94
2022-08-01T22:09:06.773Z,100258.78
2022-08-01T22:11:38.316Z,100258.31
2022-08-01T22:14:28.053Z,100258.44
2022-08-01T22:16:56.590Z,100255.06
2022-08-01T22:19:44.373Z,100258.59
2022-08-01T22:22:45.279Z,100262.16
2022-08-01T22:25:04.019Z,100261.50
2022-08-01T22:28:07.761Z,100270.44
2022-08-01T22:30:20.736Z,100264.16
2022-08-01T22:33:07.239Z,100278.00
2022-08-01T22:35:39.877Z,100282.91
2022-08-01T22:38:09.678Z,100266.41
2022-08-01T22:40:46.261Z,100275.38
2022-08-01T22:43:19.984Z,100268.13
2022-08-01T22:45:52.903Z,100268.03
2022-08-01T22:48:26.036Z,100266.25
2022-08-01T22:50:58.584Z,100261.75
2022-08-01T22:53:33.964Z,100264.81
2022-08-01T22:56:09.151Z,100262.50
2022-08-01T22:58:37.303Z,100260.91
2022-08-01T23:01:08.421Z,100256.63
2022-08-01T23:03:40.929Z,100253.22
2022-08-01T23:06:12.967Z,100261.03
2022-08-01T23:08:41.853Z,100256.47
2022-08-01T23:11:12.482Z,100253.00
2022-08-01T23:13:40.843Z,100257.66
2022-08-01T23:16:09.791Z,100259.94
2022-08-01T23:18:44.645Z,100261.13
2022-08-01T23:21:14.587Z,100266.41
2022-08-01T23:23:43.909Z,100262.63
2022-08-01T23:26:13.395Z,100258.31
2022-08-01T23:28:44.563Z,100248.00
2022-08-01T23:31:12.930Z,100257.75
2022-08-01T23:33:40.987Z,100260.22
2022-08-01T23:36:09.610Z,100251.47
2022-08-01T23:38:37.650Z,100253.78
2022-08-01T23:41:14.947Z,100255.91
2022-08-01T23:43:52.430Z,100249.00
2022-08-01T23:46:20.696Z,100254.78
2022-08-01T23:48:48.835Z,100251.97
2022-08-01T23:51:24.288Z,100250.97
2022-08-01T23:53:53.389Z,100256.09
2022-08-01T23:56:25.157Z,100264.59
2022-08-01T23:58:54.870Z,100269.28
